Reno, NV (89501)

11:30 AM PDT on July 27, 2016 (GMT -0700)
UNR Campus, LMR Roof | | Change Station

Elev 4570 ft 39.54 °N, 119.81 °W | Updated 56 seconds ago

Clear
Clear
92.5 °F
Feels Like 88 °F
N
2.2
Wind Variable Wind from NNE

Today
High -- | Low -- °F
--% Chance of Precip.
Yesterday
High -- | Low -- °F
Precip. -- in
Pressure 29.96 in
Visibility 10.0 miles
Clouds Clear
Heat Index 88 °F
Dew Point 30 °F
Humidity 10%
Rainfall 0.00 in
Snow Depth Not available.
5:54 AM 8:16 PM
Last Quarter, 41% visible
METAR KRNO 271755Z 00000KT 10SM CLR 29/M01 A3015 RMK AO2 SLP144 HZ ALQDS T02941011 10294 20150 58006
Pressure 29.96 in
Visibility 10.0 miles
Clouds Clear
Heat Index 88 °F
Dew Point 30 °F
Humidity 10%
Rainfall 0.00 in
Snow Depth Not available.
5:54 AM 8:16 PM
Last Quarter, 41% visible
METAR KRNO 271755Z 00000KT 10SM CLR 29/M01 A3015 RMK AO2 SLP144 HZ ALQDS T02941011 10294 20150 58006

10-Day Weather Forecast

Almanac

Astronomy

Jul. 27, 2016 Rise Set
Actual Time
Civil Twilight
Nautical Twilight
Astronomical Twilight
Moon
Length of Visible Light
Length of Day
Tomorrow will be .
, % of the Moon is Illuminated

Today's Extremes

State Highs State Lows

Community

WunderPhotos

Upload Photos

1,927,894 photos uploaded!

WunderBlog® & News

Nearby

Air Quality

  Air Quality AQ Index Pollutant
Not available.

Snow Depth

Station Depth Elevation

Earthquake Activity

City Distance Mag. Time & Date
Minimum magnitude displayed is 2.5.

Coastal Water Temperatures

Place Temperature

Stations

Nearby Weather Stations

Station Location Temp. Windchill Dew Point Humidity Wind Precip. Elev Updated Type
                   

Watches & Warnings

There are currently no watches in effect.